sensor_id;sensor_type;location;lat;lon;timestamp;P1;durP1;ratioP1;P2;durP2;ratioP2
65471;SDS011;52068;50.710;14.492;2023-05-20T00:00:05;7.57;;;3.33;;
65471;SDS011;52068;50.710;14.492;2023-05-20T00:02:31;6.05;;;3.50;;
65471;SDS011;52068;50.710;14.492;2023-05-20T00:04:57;4.25;;;3.05;;
65471;SDS011;52068;50.710;14.492;2023-05-20T00:07:22;7.15;;;3.30;;
65471;SDS011;52068;50.710;14.492;2023-05-20T00:09:48;4.90;;;3.15;;
65471;SDS011;52068;50.710;14.492;2023-05-20T00:12:13;5.30;;;3.40;;
65471;SDS011;52068;50.710;14.492;2023-05-20T00:14:39;8.15;;;3.33;;
65471;SDS011;52068;50.710;14.492;2023-05-20T00:17:04;5.00;;;3.72;;
65471;SDS011;52068;50.710;14.492;2023-05-20T00:19:29;5.50;;;3.17;;
65471;SDS011;52068;50.710;14.492;2023-05-20T00:21:55;5.70;;;3.30;;
65471;SDS011;52068;50.710;14.492;2023-05-20T00:24:22;6.22;;;3.80;;
65471;SDS011;52068;50.710;14.492;2023-05-20T00:26:48;5.07;;;3.22;;
65471;SDS011;52068;50.710;14.492;2023-05-20T00:29:13;5.47;;;3.47;;
65471;SDS011;52068;50.710;14.492;2023-05-20T00:31:38;11.45;;;3.10;;
65471;SDS011;52068;50.710;14.492;2023-05-20T00:34:04;5.43;;;3.65;;
65471;SDS011;52068;50.710;14.492;2023-05-20T00:36:29;3.85;;;3.15;;
65471;SDS011;52068;50.710;14.492;2023-05-20T00:38:55;5.30;;;3.10;;
65471;SDS011;52068;50.710;14.492;2023-05-20T00:41:20;4.82;;;3.08;;
65471;SDS011;52068;50.710;14.492;2023-05-20T00:43:46;4.40;;;3.22;;
65471;SDS011;52068;50.710;14.492;2023-05-20T00:46:11;5.00;;;3.17;;
65471;SDS011;52068;50.710;14.492;2023-05-20T00:48:40;4.45;;;3.13;;
65471;SDS011;52068;50.710;14.492;2023-05-20T00:51:07;4.40;;;3.20;;
65471;SDS011;52068;50.710;14.492;2023-05-20T00:53:34;5.00;;;3.30;;
65471;SDS011;52068;50.710;14.492;2023-05-20T00:56:00;4.10;;;2.75;;
65471;SDS011;52068;50.710;14.492;2023-05-20T00:58:26;3.70;;;2.90;;
65471;SDS011;52068;50.710;14.492;2023-05-20T01:00:52;4.30;;;3.22;;
65471;SDS011;52068;50.710;14.492;2023-05-20T01:03:17;4.00;;;2.92;;
65471;SDS011;52068;50.710;14.492;2023-05-20T01:05:43;3.78;;;3.00;;
65471;SDS011;52068;50.710;14.492;2023-05-20T01:08:08;5.45;;;2.88;;
65471;SDS011;52068;50.710;14.492;2023-05-20T01:10:34;4.80;;;3.13;;
65471;SDS011;52068;50.710;14.492;2023-05-20T01:13:07;8.07;;;2.97;;
65471;SDS011;52068;50.710;14.492;2023-05-20T01:15:35;7.95;;;3.25;;
65471;SDS011;52068;50.710;14.492;2023-05-20T01:18:04;3.88;;;3.05;;
65471;SDS011;52068;50.710;14.492;2023-05-20T01:20:32;4.85;;;3.33;;
65471;SDS011;52068;50.710;14.492;2023-05-20T01:22:59;5.93;;;3.08;;
65471;SDS011;52068;50.710;14.492;2023-05-20T01:25:25;4.32;;;3.10;;
65471;SDS011;52068;50.710;14.492;2023-05-20T01:27:51;5.10;;;3.30;;
65471;SDS011;52068;50.710;14.492;2023-05-20T01:30:18;3.92;;;3.10;;
65471;SDS011;52068;50.710;14.492;2023-05-20T01:32:49;4.03;;;2.90;;
65471;SDS011;52068;50.710;14.492;2023-05-20T01:35:19;3.63;;;3.13;;
65471;SDS011;52068;50.710;14.492;2023-05-20T01:37:45;3.83;;;2.90;;
65471;SDS011;52068;50.710;14.492;2023-05-20T01:40:13;3.88;;;3.10;;
65471;SDS011;52068;50.710;14.492;2023-05-20T01:42:40;3.33;;;2.80;;
65471;SDS011;52068;50.710;14.492;2023-05-20T01:45:07;4.43;;;2.95;;
65471;SDS011;52068;50.710;14.492;2023-05-20T01:47:33;4.68;;;3.00;;
65471;SDS011;52068;50.710;14.492;2023-05-20T01:49:58;4.43;;;2.85;;
65471;SDS011;52068;50.710;14.492;2023-05-20T01:52:24;3.78;;;2.55;;
65471;SDS011;52068;50.710;14.492;2023-05-20T01:54:49;3.97;;;2.80;;
65471;SDS011;52068;50.710;14.492;2023-05-20T01:57:18;5.35;;;3.08;;
65471;SDS011;52068;50.710;14.492;2023-05-20T01:59:45;7.68;;;3.25;;
65471;SDS011;52068;50.710;14.492;2023-05-20T02:02:11;4.20;;;3.05;;
65471;SDS011;52068;50.710;14.492;2023-05-20T02:04:37;4.40;;;2.95;;
65471;SDS011;52068;50.710;14.492;2023-05-20T02:07:02;3.95;;;2.88;;
65471;SDS011;52068;50.710;14.492;2023-05-20T02:09:28;5.13;;;2.80;;
65471;SDS011;52068;50.710;14.492;2023-05-20T02:11:53;3.47;;;2.92;;
65471;SDS011;52068;50.710;14.492;2023-05-20T02:14:18;5.30;;;3.00;;
65471;SDS011;52068;50.710;14.492;2023-05-20T02:16:47;4.38;;;2.80;;
65471;SDS011;52068;50.710;14.492;2023-05-20T02:19:12;3.80;;;3.08;;
65471;SDS011;52068;50.710;14.492;2023-05-20T02:21:38;3.22;;;2.88;;
65471;SDS011;52068;50.710;14.492;2023-05-20T02:24:05;6.68;;;2.70;;
65471;SDS011;52068;50.710;14.492;2023-05-20T02:26:32;5.63;;;3.00;;
65471;SDS011;52068;50.710;14.492;2023-05-20T02:28:58;4.68;;;2.90;;
65471;SDS011;52068;50.710;14.492;2023-05-20T02:31:23;3.25;;;2.72;;
65471;SDS011;52068;50.710;14.492;2023-05-20T02:33:49;6.97;;;2.85;;
65471;SDS011;52068;50.710;14.492;2023-05-20T02:36:15;3.22;;;2.53;;
65471;SDS011;52068;50.710;14.492;2023-05-20T02:38:41;3.92;;;2.85;;
65471;SDS011;52068;50.710;14.492;2023-05-20T02:41:07;4.97;;;3.15;;
65471;SDS011;52068;50.710;14.492;2023-05-20T02:43:32;6.60;;;2.75;;
65471;SDS011;52068;50.710;14.492;2023-05-20T02:46:00;5.35;;;3.05;;
65471;SDS011;52068;50.710;14.492;2023-05-20T02:48:26;4.65;;;2.90;;
65471;SDS011;52068;50.710;14.492;2023-05-20T02:50:51;5.90;;;2.85;;
65471;SDS011;52068;50.710;14.492;2023-05-20T02:53:17;4.03;;;2.78;;
65471;SDS011;52068;50.710;14.492;2023-05-20T02:55:44;3.53;;;2.72;;
65471;SDS011;52068;50.710;14.492;2023-05-20T02:58:11;5.15;;;2.88;;
65471;SDS011;52068;50.710;14.492;2023-05-20T03:00:37;4.00;;;2.78;;
65471;SDS011;52068;50.710;14.492;2023-05-20T03:03:04;6.78;;;3.15;;
65471;SDS011;52068;50.710;14.492;2023-05-20T03:05:31;3.42;;;2.72;;
65471;SDS011;52068;50.710;14.492;2023-05-20T03:07:57;2.92;;;2.60;;
65471;SDS011;52068;50.710;14.492;2023-05-20T03:10:22;4.03;;;2.63;;
65471;SDS011;52068;50.710;14.492;2023-05-20T03:12:48;4.70;;;2.95;;
65471;SDS011;52068;50.710;14.492;2023-05-20T03:15:13;3.42;;;2.60;;
65471;SDS011;52068;50.710;14.492;2023-05-20T03:17:39;5.35;;;2.78;;
65471;SDS011;52068;50.710;14.492;2023-05-20T03:20:05;4.45;;;2.60;;
65471;SDS011;52068;50.710;14.492;2023-05-20T03:22:31;3.40;;;2.70;;
65471;SDS011;52068;50.710;14.492;2023-05-20T03:24:56;4.32;;;2.67;;
65471;SDS011;52068;50.710;14.492;2023-05-20T03:27:24;3.78;;;2.58;;
65471;SDS011;52068;50.710;14.492;2023-05-20T03:29:50;3.47;;;2.78;;
65471;SDS011;52068;50.710;14.492;2023-05-20T03:32:18;6.35;;;3.05;;
65471;SDS011;52068;50.710;14.492;2023-05-20T03:34:44;3.58;;;2.58;;
65471;SDS011;52068;50.710;14.492;2023-05-20T03:37:10;5.72;;;2.33;;
65471;SDS011;52068;50.710;14.492;2023-05-20T03:39:35;5.53;;;2.80;;
65471;SDS011;52068;50.710;14.492;2023-05-20T03:42:00;4.20;;;2.80;;
65471;SDS011;52068;50.710;14.492;2023-05-20T03:44:26;3.92;;;2.80;;
65471;SDS011;52068;50.710;14.492;2023-05-20T03:46:51;6.75;;;2.78;;
65471;SDS011;52068;50.710;14.492;2023-05-20T03:49:17;2.88;;;2.50;;
65471;SDS011;52068;50.710;14.492;2023-05-20T03:51:42;3.78;;;2.97;;
65471;SDS011;52068;50.710;14.492;2023-05-20T03:54:07;3.80;;;2.47;;
65471;SDS011;52068;50.710;14.492;2023-05-20T03:56:33;4.35;;;2.45;;
65471;SDS011;52068;50.710;14.492;2023-05-20T03:58:58;4.72;;;2.75;;
65471;SDS011;52068;50.710;14.492;2023-05-20T04:01:23;4.38;;;3.08;;
65471;SDS011;52068;50.710;14.492;2023-05-20T04:03:49;4.13;;;2.92;;
65471;SDS011;52068;50.710;14.492;2023-05-20T04:06:15;4.15;;;2.60;;
65471;SDS011;52068;50.710;14.492;2023-05-20T04:08:40;4.38;;;2.63;;
65471;SDS011;52068;50.710;14.492;2023-05-20T04:11:06;3.95;;;2.70;;
65471;SDS011;52068;50.710;14.492;2023-05-20T04:13:31;4.03;;;2.55;;
65471;SDS011;52068;50.710;14.492;2023-05-20T04:15:57;4.22;;;2.70;;
65471;SDS011;52068;50.710;14.492;2023-05-20T04:18:24;3.15;;;2.85;;
65471;SDS011;52068;50.710;14.492;2023-05-20T04:20:52;4.93;;;3.20;;
65471;SDS011;52068;50.710;14.492;2023-05-20T04:23:19;4.10;;;2.92;;
65471;SDS011;52068;50.710;14.492;2023-05-20T04:25:45;3.53;;;2.78;;
65471;SDS011;52068;50.710;14.492;2023-05-20T04:28:11;5.03;;;3.10;;
65471;SDS011;52068;50.710;14.492;2023-05-20T04:30:38;2.55;;;2.22;;
65471;SDS011;52068;50.710;14.492;2023-05-20T04:33:03;3.85;;;2.40;;
65471;SDS011;52068;50.710;14.492;2023-05-20T04:35:29;3.78;;;2.92;;
65471;SDS011;52068;50.710;14.492;2023-05-20T04:37:54;3.20;;;2.90;;
65471;SDS011;52068;50.710;14.492;2023-05-20T04:40:20;3.80;;;2.58;;
65471;SDS011;52068;50.710;14.492;2023-05-20T04:42:46;3.40;;;2.60;;
65471;SDS011;52068;50.710;14.492;2023-05-20T04:45:11;3.65;;;2.75;;
65471;SDS011;52068;50.710;14.492;2023-05-20T04:47:37;2.53;;;2.33;;
65471;SDS011;52068;50.710;14.492;2023-05-20T04:50:06;3.45;;;2.60;;
65471;SDS011;52068;50.710;14.492;2023-05-20T04:52:36;3.28;;;2.45;;
65471;SDS011;52068;50.710;14.492;2023-05-20T04:55:03;3.28;;;2.40;;
65471;SDS011;52068;50.710;14.492;2023-05-20T04:57:29;4.35;;;2.88;;
65471;SDS011;52068;50.710;14.492;2023-05-20T04:59:55;4.38;;;2.50;;
65471;SDS011;52068;50.710;14.492;2023-05-20T05:02:23;4.57;;;2.83;;
65471;SDS011;52068;50.710;14.492;2023-05-20T05:04:49;4.72;;;2.60;;
65471;SDS011;52068;50.710;14.492;2023-05-20T05:07:14;3.88;;;2.72;;
65471;SDS011;52068;50.710;14.492;2023-05-20T05:09:40;4.10;;;2.50;;
65471;SDS011;52068;50.710;14.492;2023-05-20T05:12:05;4.63;;;2.75;;
65471;SDS011;52068;50.710;14.492;2023-05-20T05:14:31;5.53;;;2.90;;
65471;SDS011;52068;50.710;14.492;2023-05-20T05:16:56;2.67;;;2.10;;
65471;SDS011;52068;50.710;14.492;2023-05-20T05:19:22;3.03;;;2.38;;
65471;SDS011;52068;50.710;14.492;2023-05-20T05:21:47;3.65;;;2.78;;
65471;SDS011;52068;50.710;14.492;2023-05-20T05:24:12;5.97;;;2.70;;
65471;SDS011;52068;50.710;14.492;2023-05-20T05:26:38;3.63;;;2.35;;
65471;SDS011;52068;50.710;14.492;2023-05-20T05:29:03;2.65;;;2.33;;
65471;SDS011;52068;50.710;14.492;2023-05-20T05:31:29;3.67;;;2.60;;
65471;SDS011;52068;50.710;14.492;2023-05-20T05:33:54;2.28;;;2.05;;
65471;SDS011;52068;50.710;14.492;2023-05-20T05:36:19;12.32;;;2.88;;
65471;SDS011;52068;50.710;14.492;2023-05-20T05:38:45;3.05;;;2.50;;
65471;SDS011;52068;50.710;14.492;2023-05-20T05:41:10;3.47;;;2.40;;
65471;SDS011;52068;50.710;14.492;2023-05-20T05:43:36;6.00;;;2.67;;
65471;SDS011;52068;50.710;14.492;2023-05-20T05:46:01;6.43;;;2.35;;
65471;SDS011;52068;50.710;14.492;2023-05-20T05:48:27;3.28;;;2.60;;
65471;SDS011;52068;50.710;14.492;2023-05-20T05:50:52;6.93;;;2.60;;
65471;SDS011;52068;50.710;14.492;2023-05-20T05:53:17;10.73;;;2.92;;
65471;SDS011;52068;50.710;14.492;2023-05-20T05:55:44;7.30;;;2.65;;
65471;SDS011;52068;50.710;14.492;2023-05-20T05:58:10;5.60;;;3.10;;
65471;SDS011;52068;50.710;14.492;2023-05-20T06:00:37;4.95;;;3.42;;
65471;SDS011;52068;50.710;14.492;2023-05-20T06:03:02;7.18;;;3.22;;
65471;SDS011;52068;50.710;14.492;2023-05-20T06:05:28;3.67;;;3.20;;
65471;SDS011;52068;50.710;14.492;2023-05-20T06:07:53;5.07;;;3.05;;
65471;SDS011;52068;50.710;14.492;2023-05-20T06:10:19;7.20;;;3.40;;
65471;SDS011;52068;50.710;14.492;2023-05-20T06:12:44;7.28;;;3.47;;
65471;SDS011;52068;50.710;14.492;2023-05-20T06:15:09;4.60;;;3.13;;
65471;SDS011;52068;50.710;14.492;2023-05-20T06:17:35;8.40;;;3.30;;
65471;SDS011;52068;50.710;14.492;2023-05-20T06:20:00;3.75;;;3.33;;
65471;SDS011;52068;50.710;14.492;2023-05-20T06:22:26;5.43;;;3.60;;
65471;SDS011;52068;50.710;14.492;2023-05-20T06:24:52;5.85;;;3.28;;
65471;SDS011;52068;50.710;14.492;2023-05-20T06:27:17;4.78;;;3.35;;
65471;SDS011;52068;50.710;14.492;2023-05-20T06:29:43;4.88;;;3.30;;
65471;SDS011;52068;50.710;14.492;2023-05-20T06:32:08;7.80;;;3.88;;
65471;SDS011;52068;50.710;14.492;2023-05-20T06:34:34;4.80;;;3.50;;
65471;SDS011;52068;50.710;14.492;2023-05-20T06:36:59;4.90;;;3.85;;
65471;SDS011;52068;50.710;14.492;2023-05-20T06:39:24;9.02;;;4.10;;
65471;SDS011;52068;50.710;14.492;2023-05-20T06:41:50;6.88;;;3.83;;
65471;SDS011;52068;50.710;14.492;2023-05-20T06:44:16;7.15;;;3.72;;
65471;SDS011;52068;50.710;14.492;2023-05-20T06:46:41;5.85;;;3.75;;
65471;SDS011;52068;50.710;14.492;2023-05-20T06:49:07;4.78;;;3.88;;
65471;SDS011;52068;50.710;14.492;2023-05-20T06:51:32;7.15;;;3.72;;
65471;SDS011;52068;50.710;14.492;2023-05-20T06:53:58;4.97;;;3.97;;
65471;SDS011;52068;50.710;14.492;2023-05-20T06:56:23;9.27;;;3.83;;
65471;SDS011;52068;50.710;14.492;2023-05-20T06:58:48;6.20;;;3.60;;
65471;SDS011;52068;50.710;14.492;2023-05-20T07:01:14;10.07;;;4.00;;
65471;SDS011;52068;50.710;14.492;2023-05-20T07:03:39;7.82;;;4.32;;
65471;SDS011;52068;50.710;14.492;2023-05-20T07:06:05;6.93;;;3.70;;
65471;SDS011;52068;50.710;14.492;2023-05-20T07:08:30;5.30;;;3.63;;
65471;SDS011;52068;50.710;14.492;2023-05-20T07:10:56;7.72;;;4.00;;
65471;SDS011;52068;50.710;14.492;2023-05-20T07:13:21;10.43;;;4.32;;
65471;SDS011;52068;50.710;14.492;2023-05-20T07:15:50;5.00;;;3.67;;
65471;SDS011;52068;50.710;14.492;2023-05-20T07:18:15;6.25;;;4.25;;
65471;SDS011;52068;50.710;14.492;2023-05-20T07:20:41;8.82;;;4.50;;
65471;SDS011;52068;50.710;14.492;2023-05-20T07:23:06;4.85;;;3.70;;
65471;SDS011;52068;50.710;14.492;2023-05-20T07:25:31;5.97;;;3.75;;
65471;SDS011;52068;50.710;14.492;2023-05-20T07:27:57;6.55;;;3.97;;
65471;SDS011;52068;50.710;14.492;2023-05-20T07:30:24;5.88;;;3.83;;
65471;SDS011;52068;50.710;14.492;2023-05-20T07:32:50;5.20;;;3.65;;
65471;SDS011;52068;50.710;14.492;2023-05-20T07:35:15;7.63;;;3.67;;
65471;SDS011;52068;50.710;14.492;2023-05-20T07:37:41;6.05;;;3.92;;
65471;SDS011;52068;50.710;14.492;2023-05-20T07:40:06;5.57;;;4.03;;
65471;SDS011;52068;50.710;14.492;2023-05-20T07:42:32;5.97;;;3.97;;
65471;SDS011;52068;50.710;14.492;2023-05-20T07:44:59;7.68;;;4.38;;
65471;SDS011;52068;50.710;14.492;2023-05-20T07:47:24;4.75;;;3.90;;
65471;SDS011;52068;50.710;14.492;2023-05-20T07:49:50;7.18;;;3.75;;
65471;SDS011;52068;50.710;14.492;2023-05-20T07:52:15;4.43;;;3.63;;
65471;SDS011;52068;50.710;14.492;2023-05-20T07:54:41;5.80;;;3.95;;
65471;SDS011;52068;50.710;14.492;2023-05-20T07:57:06;6.85;;;3.55;;
65471;SDS011;52068;50.710;14.492;2023-05-20T07:59:32;8.02;;;4.35;;
65471;SDS011;52068;50.710;14.492;2023-05-20T08:01:57;6.05;;;3.63;;
65471;SDS011;52068;50.710;14.492;2023-05-20T08:04:23;8.68;;;3.92;;
65471;SDS011;52068;50.710;14.492;2023-05-20T08:06:48;5.97;;;3.92;;
65471;SDS011;52068;50.710;14.492;2023-05-20T08:09:14;7.00;;;3.42;;
65471;SDS011;52068;50.710;14.492;2023-05-20T08:11:40;7.57;;;3.67;;
65471;SDS011;52068;50.710;14.492;2023-05-20T08:14:05;6.05;;;3.55;;
65471;SDS011;52068;50.710;14.492;2023-05-20T08:16:31;7.00;;;3.55;;
65471;SDS011;52068;50.710;14.492;2023-05-20T08:18:56;5.05;;;3.45;;
65471;SDS011;52068;50.710;14.492;2023-05-20T08:21:21;5.63;;;3.70;;
65471;SDS011;52068;50.710;14.492;2023-05-20T08:23:47;5.25;;;3.42;;
65471;SDS011;52068;50.710;14.492;2023-05-20T08:26:12;4.82;;;3.78;;
65471;SDS011;52068;50.710;14.492;2023-05-20T08:28:38;5.90;;;3.53;;
65471;SDS011;52068;50.710;14.492;2023-05-20T08:31:03;5.95;;;3.88;;
65471;SDS011;52068;50.710;14.492;2023-05-20T08:33:29;5.53;;;3.80;;
65471;SDS011;52068;50.710;14.492;2023-05-20T08:35:54;6.53;;;3.67;;
65471;SDS011;52068;50.710;14.492;2023-05-20T08:38:20;5.63;;;3.88;;
65471;SDS011;52068;50.710;14.492;2023-05-20T08:40:50;5.13;;;3.50;;
65471;SDS011;52068;50.710;14.492;2023-05-20T08:43:17;4.55;;;3.58;;
65471;SDS011;52068;50.710;14.492;2023-05-20T08:45:42;7.10;;;3.92;;
65471;SDS011;52068;50.710;14.492;2023-05-20T08:48:08;6.07;;;3.50;;
65471;SDS011;52068;50.710;14.492;2023-05-20T08:50:33;5.25;;;3.75;;
65471;SDS011;52068;50.710;14.492;2023-05-20T08:52:58;5.75;;;3.70;;
65471;SDS011;52068;50.710;14.492;2023-05-20T08:55:25;4.93;;;3.85;;
65471;SDS011;52068;50.710;14.492;2023-05-20T08:57:55;5.65;;;3.88;;
65471;SDS011;52068;50.710;14.492;2023-05-20T09:00:21;5.35;;;3.60;;
65471;SDS011;52068;50.710;14.492;2023-05-20T09:02:53;5.45;;;3.55;;
65471;SDS011;52068;50.710;14.492;2023-05-20T09:05:19;6.30;;;3.67;;
65471;SDS011;52068;50.710;14.492;2023-05-20T09:07:45;6.40;;;3.30;;
65471;SDS011;52068;50.710;14.492;2023-05-20T09:10:10;7.00;;;3.90;;
65471;SDS011;52068;50.710;14.492;2023-05-20T09:12:36;5.63;;;3.60;;
65471;SDS011;52068;50.710;14.492;2023-05-20T09:15:02;6.90;;;4.07;;
65471;SDS011;52068;50.710;14.492;2023-05-20T09:17:28;5.25;;;3.63;;
65471;SDS011;52068;50.710;14.492;2023-05-20T09:19:54;7.03;;;4.53;;
65471;SDS011;52068;50.710;14.492;2023-05-20T09:22:23;5.35;;;3.70;;
65471;SDS011;52068;50.710;14.492;2023-05-20T09:24:50;5.85;;;3.88;;
65471;SDS011;52068;50.710;14.492;2023-05-20T09:27:16;9.02;;;3.28;;
65471;SDS011;52068;50.710;14.492;2023-05-20T09:29:42;4.78;;;3.70;;
65471;SDS011;52068;50.710;14.492;2023-05-20T09:32:08;6.53;;;4.20;;
65471;SDS011;52068;50.710;14.492;2023-05-20T09:34:34;6.05;;;3.55;;
65471;SDS011;52068;50.710;14.492;2023-05-20T09:37:01;5.18;;;3.95;;
65471;SDS011;52068;50.710;14.492;2023-05-20T09:39:28;5.78;;;4.18;;
65471;SDS011;52068;50.710;14.492;2023-05-20T09:42:01;4.85;;;3.72;;
65471;SDS011;52068;50.710;14.492;2023-05-20T09:44:52;5.20;;;3.80;;
65471;SDS011;52068;50.710;14.492;2023-05-20T09:47:22;6.18;;;4.03;;
65471;SDS011;52068;50.710;14.492;2023-05-20T09:49:49;5.70;;;3.70;;
65471;SDS011;52068;50.710;14.492;2023-05-20T09:52:16;6.03;;;3.75;;
65471;SDS011;52068;50.710;14.492;2023-05-20T09:54:42;5.43;;;3.60;;
65471;SDS011;52068;50.710;14.492;2023-05-20T09:57:08;6.50;;;3.55;;
65471;SDS011;52068;50.710;14.492;2023-05-20T09:59:34;6.13;;;3.78;;
65471;SDS011;52068;50.710;14.492;2023-05-20T10:02:01;7.45;;;4.32;;
65471;SDS011;52068;50.710;14.492;2023-05-20T10:04:27;5.82;;;3.38;;
65471;SDS011;52068;50.710;14.492;2023-05-20T10:09:39;5.78;;;3.90;;
65471;SDS011;52068;50.710;14.492;2023-05-20T10:12:18;6.30;;;4.13;;
65471;SDS011;52068;50.710;14.492;2023-05-20T10:17:50;6.22;;;3.95;;
65471;SDS011;52068;50.710;14.492;2023-05-20T10:20:28;5.13;;;3.92;;
65471;SDS011;52068;50.710;14.492;2023-05-20T10:22:57;6.55;;;3.70;;
65471;SDS011;52068;50.710;14.492;2023-05-20T10:25:23;5.72;;;3.92;;
65471;SDS011;52068;50.710;14.492;2023-05-20T10:27:50;5.38;;;3.90;;
65471;SDS011;52068;50.710;14.492;2023-05-20T10:30:19;4.78;;;3.72;;
65471;SDS011;52068;50.710;14.492;2023-05-20T10:32:52;4.95;;;4.07;;
65471;SDS011;52068;50.710;14.492;2023-05-20T10:35:23;7.85;;;3.90;;
65471;SDS011;52068;50.710;14.492;2023-05-20T10:37:51;4.95;;;4.28;;
65471;SDS011;52068;50.710;14.492;2023-05-20T10:40:18;4.90;;;3.70;;
65471;SDS011;52068;50.710;14.492;2023-05-20T10:42:45;6.97;;;4.05;;
65471;SDS011;52068;50.710;14.492;2023-05-20T10:45:23;5.55;;;4.10;;
65471;SDS011;52068;50.710;14.492;2023-05-20T10:47:56;7.05;;;3.70;;
65471;SDS011;52068;50.710;14.492;2023-05-20T10:50:26;6.43;;;4.10;;
65471;SDS011;52068;50.710;14.492;2023-05-20T10:52:52;5.10;;;3.83;;
65471;SDS011;52068;50.710;14.492;2023-05-20T10:55:18;5.95;;;4.25;;
65471;SDS011;52068;50.710;14.492;2023-05-20T10:57:46;5.10;;;3.72;;
65471;SDS011;52068;50.710;14.492;2023-05-20T11:00:12;5.63;;;3.95;;
65471;SDS011;52068;50.710;14.492;2023-05-20T11:02:37;6.60;;;4.07;;
65471;SDS011;52068;50.710;14.492;2023-05-20T11:05:03;4.30;;;3.70;;
65471;SDS011;52068;50.710;14.492;2023-05-20T11:07:30;5.13;;;4.13;;
65471;SDS011;52068;50.710;14.492;2023-05-20T11:09:56;7.53;;;4.22;;
65471;SDS011;52068;50.710;14.492;2023-05-20T11:12:23;4.90;;;3.67;;
65471;SDS011;52068;50.710;14.492;2023-05-20T11:14:50;6.05;;;3.97;;
65471;SDS011;52068;50.710;14.492;2023-05-20T11:17:15;5.20;;;4.25;;
65471;SDS011;52068;50.710;14.492;2023-05-20T11:19:42;7.15;;;4.07;;
65471;SDS011;52068;50.710;14.492;2023-05-20T11:22:08;4.28;;;3.63;;
65471;SDS011;52068;50.710;14.492;2023-05-20T11:24:33;5.90;;;4.07;;
65471;SDS011;52068;50.710;14.492;2023-05-20T11:26:59;4.72;;;3.92;;
65471;SDS011;52068;50.710;14.492;2023-05-20T11:29:26;5.65;;;4.22;;
65471;SDS011;52068;50.710;14.492;2023-05-20T11:31:53;6.88;;;5.13;;
65471;SDS011;52068;50.710;14.492;2023-05-20T11:34:19;5.35;;;4.30;;
65471;SDS011;52068;50.710;14.492;2023-05-20T11:36:46;6.70;;;4.32;;
65471;SDS011;52068;50.710;14.492;2023-05-20T11:39:12;4.97;;;4.45;;
65471;SDS011;52068;50.710;14.492;2023-05-20T11:41:40;8.27;;;4.38;;
65471;SDS011;52068;50.710;14.492;2023-05-20T11:44:09;7.10;;;4.60;;
65471;SDS011;52068;50.710;14.492;2023-05-20T11:46:42;6.93;;;4.50;;
65471;SDS011;52068;50.710;14.492;2023-05-20T11:49:08;5.50;;;4.32;;
65471;SDS011;52068;50.710;14.492;2023-05-20T11:51:33;6.20;;;4.93;;
65471;SDS011;52068;50.710;14.492;2023-05-20T11:54:02;5.80;;;4.07;;
65471;SDS011;52068;50.710;14.492;2023-05-20T11:56:32;5.35;;;4.43;;
65471;SDS011;52068;50.710;14.492;2023-05-20T11:59:00;4.97;;;4.30;;
65471;SDS011;52068;50.710;14.492;2023-05-20T12:01:38;5.82;;;4.50;;
65471;SDS011;52068;50.710;14.492;2023-05-20T12:04:05;5.28;;;4.53;;
65471;SDS011;52068;50.710;14.492;2023-05-20T12:06:31;6.72;;;4.38;;
65471;SDS011;52068;50.710;14.492;2023-05-20T12:09:00;6.38;;;4.45;;
65471;SDS011;52068;50.710;14.492;2023-05-20T12:11:32;7.60;;;4.57;;
65471;SDS011;52068;50.710;14.492;2023-05-20T12:14:04;5.60;;;4.40;;
65471;SDS011;52068;50.710;14.492;2023-05-20T12:16:30;6.30;;;4.63;;
65471;SDS011;52068;50.710;14.492;2023-05-20T12:18:57;5.30;;;4.25;;
65471;SDS011;52068;50.710;14.492;2023-05-20T12:21:22;10.63;;;4.68;;
65471;SDS011;52068;50.710;14.492;2023-05-20T12:23:48;4.70;;;4.15;;
65471;SDS011;52068;50.710;14.492;2023-05-20T12:26:13;5.40;;;4.75;;
65471;SDS011;52068;50.710;14.492;2023-05-20T12:28:38;5.03;;;4.50;;
65471;SDS011;52068;50.710;14.492;2023-05-20T12:31:04;7.88;;;4.80;;
65471;SDS011;52068;50.710;14.492;2023-05-20T12:33:30;7.55;;;5.18;;
65471;SDS011;52068;50.710;14.492;2023-05-20T12:35:55;5.35;;;4.82;;
65471;SDS011;52068;50.710;14.492;2023-05-20T12:38:21;6.32;;;4.88;;
65471;SDS011;52068;50.710;14.492;2023-05-20T12:40:46;7.47;;;5.38;;
65471;SDS011;52068;50.710;14.492;2023-05-20T12:43:11;7.15;;;5.80;;
65471;SDS011;52068;50.710;14.492;2023-05-20T12:45:37;7.68;;;4.95;;
65471;SDS011;52068;50.710;14.492;2023-05-20T12:48:02;7.05;;;5.55;;
65471;SDS011;52068;50.710;14.492;2023-05-20T12:50:28;8.23;;;5.57;;
65471;SDS011;52068;50.710;14.492;2023-05-20T12:52:54;7.93;;;5.68;;
65471;SDS011;52068;50.710;14.492;2023-05-20T12:55:19;8.52;;;5.90;;
65471;SDS011;52068;50.710;14.492;2023-05-20T12:57:45;8.25;;;5.90;;
65471;SDS011;52068;50.710;14.492;2023-05-20T13:00:11;10.15;;;6.72;;
65471;SDS011;52068;50.710;14.492;2023-05-20T13:02:37;7.95;;;6.00;;
65471;SDS011;52068;50.710;14.492;2023-05-20T13:05:04;12.23;;;6.75;;
65471;SDS011;52068;50.710;14.492;2023-05-20T13:07:30;9.82;;;6.20;;
65471;SDS011;52068;50.710;14.492;2023-05-20T13:09:56;7.55;;;5.70;;
65471;SDS011;52068;50.710;14.492;2023-05-20T13:12:25;12.32;;;6.07;;
65471;SDS011;52068;50.710;14.492;2023-05-20T13:14:50;10.90;;;6.72;;
65471;SDS011;52068;50.710;14.492;2023-05-20T13:17:16;10.68;;;6.22;;
65471;SDS011;52068;50.710;14.492;2023-05-20T13:19:42;12.20;;;6.60;;
65471;SDS011;52068;50.710;14.492;2023-05-20T13:22:09;9.30;;;6.50;;
65471;SDS011;52068;50.710;14.492;2023-05-20T13:24:35;10.98;;;6.30;;
65471;SDS011;52068;50.710;14.492;2023-05-20T13:27:01;13.27;;;6.70;;
65471;SDS011;52068;50.710;14.492;2023-05-20T13:29:27;7.43;;;6.35;;
65471;SDS011;52068;50.710;14.492;2023-05-20T13:31:52;10.27;;;6.35;;
65471;SDS011;52068;50.710;14.492;2023-05-20T13:34:18;9.00;;;6.43;;
65471;SDS011;52068;50.710;14.492;2023-05-20T13:36:44;12.98;;;6.35;;
65471;SDS011;52068;50.710;14.492;2023-05-20T13:39:10;6.97;;;5.90;;
65471;SDS011;52068;50.710;14.492;2023-05-20T13:41:35;9.52;;;5.88;;
65471;SDS011;52068;50.710;14.492;2023-05-20T13:44:01;9.02;;;6.50;;
65471;SDS011;52068;50.710;14.492;2023-05-20T13:46:26;8.95;;;6.22;;
65471;SDS011;52068;50.710;14.492;2023-05-20T13:48:52;9.30;;;6.93;;
65471;SDS011;52068;50.710;14.492;2023-05-20T13:51:17;9.70;;;7.00;;
65471;SDS011;52068;50.710;14.492;2023-05-20T13:53:42;11.35;;;7.32;;
65471;SDS011;52068;50.710;14.492;2023-05-20T13:56:08;11.35;;;7.70;;
65471;SDS011;52068;50.710;14.492;2023-05-20T13:58:34;12.43;;;7.35;;
65471;SDS011;52068;50.710;14.492;2023-05-20T14:01:00;11.52;;;7.35;;
65471;SDS011;52068;50.710;14.492;2023-05-20T14:03:27;10.95;;;7.28;;
65471;SDS011;52068;50.710;14.492;2023-05-20T14:05:53;9.25;;;6.78;;
65471;SDS011;52068;50.710;14.492;2023-05-20T14:08:18;9.02;;;6.93;;
65471;SDS011;52068;50.710;14.492;2023-05-20T14:10:44;11.38;;;7.63;;
65471;SDS011;52068;50.710;14.492;2023-05-20T14:13:09;10.48;;;7.68;;
65471;SDS011;52068;50.710;14.492;2023-05-20T14:15:34;11.82;;;7.50;;
65471;SDS011;52068;50.710;14.492;2023-05-20T14:18:00;8.98;;;7.32;;
65471;SDS011;52068;50.710;14.492;2023-05-20T14:20:26;11.93;;;7.82;;
65471;SDS011;52068;50.710;14.492;2023-05-20T14:22:51;10.63;;;7.30;;
65471;SDS011;52068;50.710;14.492;2023-05-20T14:25:17;9.38;;;7.38;;
65471;SDS011;52068;50.710;14.492;2023-05-20T14:27:42;9.93;;;6.82;;
65471;SDS011;52068;50.710;14.492;2023-05-20T14:30:08;12.20;;;7.53;;
65471;SDS011;52068;50.710;14.492;2023-05-20T14:32:34;9.88;;;7.20;;